createdAt,value
2022-08-07T00:02:40.629Z,100848.00
2022-08-07T00:05:05.765Z,100848.67
2022-08-07T00:07:40.361Z,100852.05
2022-08-07T00:10:31.073Z,100849.23
2022-08-07T00:13:17.588Z,100854.71
2022-08-07T00:15:55.427Z,100855.06
2022-08-07T00:18:29.651Z,100858.67
2022-08-07T00:21:07.982Z,100858.65
2022-08-07T00:23:40.745Z,100857.86
2022-08-07T00:26:18.594Z,100860.80
2022-08-07T00:29:00.066Z,100858.33
2022-08-07T00:31:38.111Z,100858.80
2022-08-07T00:34:10.829Z,100863.17
2022-08-07T00:36:42.944Z,100863.98
2022-08-07T00:39:16.536Z,100863.75
2022-08-07T00:42:02.065Z,100858.86
2022-08-07T00:44:35.757Z,100860.93
2022-08-07T00:47:26.559Z,100864.38
2022-08-07T00:50:19.153Z,100862.58
2022-08-07T00:52:48.728Z,100865.17
2022-08-07T00:55:25.368Z,100866.30
2022-08-07T00:58:07.163Z,100868.61
2022-08-07T01:00:35.798Z,100868.38
2022-08-07T01:03:04.604Z,100872.67
2022-08-07T01:05:36.609Z,100874.35
2022-08-07T01:08:09.117Z,100875.63
2022-08-07T01:10:39.738Z,100880.25
2022-08-07T01:13:16.609Z,100888.80
2022-08-07T01:16:05.662Z,100889.84
2022-08-07T01:18:37.155Z,100882.95
2022-08-07T01:21:22.534Z,100882.70
2022-08-07T01:23:54.810Z,100883.73
2022-08-07T01:26:26.142Z,100882.74
2022-08-07T01:28:55.959Z,100882.20
2022-08-07T01:31:42.499Z,100885.14
2022-08-07T01:34:18.951Z,100889.48
2022-08-07T01:36:52.663Z,100896.63
2022-08-07T01:39:39.585Z,100885.20
2022-08-07T01:42:39.658Z,100888.11
2022-08-07T01:45:12.803Z,100887.20
2022-08-07T01:48:20.504Z,100894.86
2022-08-07T01:50:40.367Z,100894.20
2022-08-07T01:53:21.013Z,100895.63
2022-08-07T01:56:06.800Z,100893.64
2022-08-07T01:58:49.237Z,100893.55
2022-08-07T02:01:59.956Z,100893.05
2022-08-07T02:04:55.603Z,100897.23
2022-08-07T02:07:35.808Z,100897.73
2022-08-07T02:10:16.511Z,100895.91
2022-08-07T02:12:50.037Z,100897.95
2022-08-07T02:15:28.071Z,100900.37
2022-08-07T02:17:59.932Z,100900.76
2022-08-07T02:20:32.801Z,100907.99
2022-08-07T02:23:06.272Z,100911.67
2022-08-07T02:26:31.144Z,100909.66
2022-08-07T02:28:31.638Z,100907.89
2022-08-07T02:31:18.754Z,100909.30
2022-08-07T02:34:11.267Z,100912.52
2022-08-07T02:36:50.750Z,100911.98
2022-08-07T02:39:42.443Z,100917.23
2022-08-07T02:42:16.153Z,100916.08
2022-08-07T02:44:50.244Z,100919.64
2022-08-07T02:47:24.133Z,100920.10
2022-08-07T02:50:04.636Z,100922.61
2022-08-07T02:52:44.092Z,100925.11
2022-08-07T02:55:28.253Z,100928.29
2022-08-07T02:58:22.288Z,100931.35
2022-08-07T03:01:00.110Z,100928.36
2022-08-07T03:06:35.402Z,100942.15
2022-08-07T03:13:49.720Z,100938.02
2022-08-07T03:17:54.093Z,100951.45
2022-08-07T03:20:30.231Z,100949.63
2022-08-07T03:23:00.326Z,100953.32
2022-08-07T03:29:00.669Z,100969.23
2022-08-07T03:31:43.443Z,100973.23
2022-08-07T03:34:22.826Z,100976.06
2022-08-07T03:37:12.322Z,100976.17
2022-08-07T03:40:15.515Z,100973.12
2022-08-07T03:42:58.842Z,100978.92
2022-08-07T03:45:39.610Z,100984.33
2022-08-07T03:52:46.035Z,100985.91
2022-08-07T03:55:57.854Z,100986.98
2022-08-07T03:59:07.174Z,100986.64
2022-08-07T04:01:27.393Z,100989.46
2022-08-07T04:03:56.839Z,100987.11
2022-08-07T04:06:37.722Z,100988.88
2022-08-07T04:09:16.186Z,100986.78
2022-08-07T04:12:25.548Z,100985.99
2022-08-07T04:14:47.857Z,100989.77
2022-08-07T04:17:23.012Z,100992.16
2022-08-07T04:20:17.391Z,100995.14
2022-08-07T04:22:53.664Z,101001.00
2022-08-07T04:25:45.743Z,101007.37
2022-08-07T04:28:23.093Z,101012.50
2022-08-07T04:30:58.865Z,101010.56
2022-08-07T04:33:35.280Z,101009.55
2022-08-07T04:36:09.178Z,101013.20
2022-08-07T04:38:39.821Z,101012.04
2022-08-07T04:41:18.284Z,101017.73
2022-08-07T04:44:12.515Z,101020.82
2022-08-07T04:48:02.209Z,101025.79
2022-08-07T04:50:52.073Z,101029.39
2022-08-07T04:54:01.638Z,101031.24
2022-08-07T04:58:12.970Z,101034.16
2022-08-07T05:04:07.374Z,101038.20
2022-08-07T05:07:55.834Z,101041.16
2022-08-07T05:10:43.444Z,101040.73
2022-08-07T05:14:54.050Z,101047.09
2022-08-07T05:16:31.744Z,101045.88
2022-08-07T05:19:12.443Z,101049.07
2022-08-07T05:22:00.047Z,101052.71
2022-08-07T05:24:40.664Z,101057.98
2022-08-07T05:28:02.494Z,101058.93
2022-08-07T05:30:04.764Z,101046.73
2022-08-07T05:32:36.083Z,101062.27
2022-08-07T05:35:08.866Z,101061.09
2022-08-07T05:37:40.889Z,101061.00
2022-08-07T05:40:17.601Z,101058.65
2022-08-07T05:42:54.831Z,101059.92
2022-08-07T05:45:46.804Z,101063.70
2022-08-07T05:48:26.732Z,101062.88
2022-08-07T05:50:59.855Z,101062.48
2022-08-07T05:54:13.219Z,101066.51
2022-08-07T05:56:29.926Z,101042.86
2022-08-07T05:59:11.122Z,101074.59
2022-08-07T06:01:46.998Z,101073.05
2022-08-07T06:04:22.363Z,101074.89
2022-08-07T06:07:06.441Z,101075.54
2022-08-07T06:10:03.785Z,101074.71
2022-08-07T06:12:32.998Z,101079.48
2022-08-07T06:15:03.117Z,101077.41
2022-08-07T06:17:38.206Z,101081.21
2022-08-07T06:20:12.648Z,101085.41
2022-08-07T06:23:24.930Z,101084.73
2022-08-07T06:25:54.313Z,101087.64
2022-08-07T06:28:27.739Z,101088.48
2022-08-07T06:30:58.226Z,101084.84
2022-08-07T06:33:29.796Z,101086.91
2022-08-07T06:36:13.194Z,101086.32
2022-08-07T06:38:51.656Z,101088.50
2022-08-07T06:56:15.280Z,101078.52
2022-08-07T07:00:13.311Z,101085.65
2022-08-07T07:01:50.611Z,101080.23
2022-08-07T07:04:28.499Z,101079.16
2022-08-07T07:07:19.469Z,101086.37
2022-08-07T07:09:54.112Z,101080.05
2022-08-07T07:12:55.379Z,101078.67
2022-08-07T07:15:37.643Z,101078.38
2022-08-07T07:18:47.043Z,101078.11
2022-08-07T07:21:21.636Z,101077.61
2022-08-07T07:24:08.642Z,101078.80
2022-08-07T07:26:52.169Z,101078.15
2022-08-07T07:29:57.247Z,101078.70
2022-08-07T07:32:18.588Z,101079.80
2022-08-07T07:34:52.264Z,101091.30
2022-08-07T07:37:47.343Z,101095.12
2022-08-07T07:40:18.582Z,101096.70
2022-08-07T07:42:54.126Z,101098.68
2022-08-07T07:46:53.302Z,101095.46
2022-08-07T07:48:34.769Z,101094.42
2022-08-07T07:51:08.453Z,101095.42
2022-08-07T07:53:51.905Z,101099.79
2022-08-07T07:56:30.193Z,101098.17
2022-08-07T07:59:05.884Z,101090.05
2022-08-07T08:02:03.732Z,101086.67
2022-08-07T08:04:28.357Z,101080.48
2022-08-07T08:06:56.388Z,101083.46
2022-08-07T08:09:29.859Z,101079.08
2022-08-07T08:12:03.682Z,101067.67
2022-08-07T08:14:36.254Z,101076.30
2022-08-07T08:17:55.654Z,101071.91
2022-08-07T08:20:18.119Z,101077.58
2022-08-07T08:23:14.389Z,101073.73
2022-08-07T08:26:07.242Z,101080.65
2022-08-07T08:29:01.615Z,101079.16
2022-08-07T08:32:17.511Z,101080.15
2022-08-07T08:34:55.585Z,101081.17
2022-08-07T08:42:25.728Z,101071.02
2022-08-07T08:45:41.573Z,101075.81
2022-08-07T08:48:38.486Z,101073.92
2022-08-07T08:56:13.717Z,101074.14
2022-08-07T08:59:26.211Z,101078.97
2022-08-07T09:02:49.585Z,101077.48
2022-08-07T09:05:52.965Z,101083.87
2022-08-07T09:08:39.274Z,101090.69
2022-08-07T09:11:50.550Z,101084.79
2022-08-07T09:14:51.629Z,101082.30
2022-08-07T09:17:59.425Z,101087.55
2022-08-07T09:21:01.077Z,101085.04
2022-08-07T09:24:59.112Z,101088.07
2022-08-07T09:28:00.538Z,101081.51
2022-08-07T09:31:03.466Z,101071.52
2022-08-07T09:34:02.897Z,101071.33
2022-08-07T09:36:53.725Z,101068.66
2022-08-07T09:39:54.474Z,101072.77
2022-08-07T09:42:17.311Z,101067.11
2022-08-07T09:47:24.754Z,101068.73
2022-08-07T09:48:24.778Z,101069.24
2022-08-07T09:52:16.073Z,101075.64
2022-08-07T09:54:37.718Z,101072.61
2022-08-07T09:57:17.388Z,101067.38
2022-08-07T10:00:14.876Z,101076.07
2022-08-07T10:04:05.964Z,101064.73
2022-08-07T10:06:56.980Z,101073.55
2022-08-07T10:10:03.515Z,101068.91
2022-08-07T10:14:00.571Z,101068.92
2022-08-07T10:16:41.535Z,101077.46
2022-08-07T10:19:39.140Z,101077.52
2022-08-07T10:22:50.979Z,101074.77
2022-08-07T10:26:15.695Z,101078.56
2022-08-07T10:29:32.247Z,101091.03
2022-08-07T10:40:33.536Z,101092.92
2022-08-07T12:14:27.032Z,101117.45
2022-08-07T12:17:19.854Z,101132.91
2022-08-07T12:20:11.425Z,101137.19
2022-08-07T12:24:05.537Z,101137.71
2022-08-07T12:26:50.720Z,101126.58
2022-08-07T12:34:00.722Z,101126.14
2022-08-07T12:36:36.329Z,101130.77
2022-08-07T12:44:03.401Z,101124.41
2022-08-07T12:59:02.875Z,101138.55
2022-08-07T13:14:15.810Z,101132.14
2022-08-07T13:17:10.916Z,101138.66
2022-08-07T13:32:06.215Z,101118.89
2022-08-07T13:36:17.793Z,101125.20
2022-08-07T13:39:13.136Z,101112.31
2022-08-07T13:41:56.492Z,101114.41
2022-08-07T14:01:16.276Z,101100.33
2022-08-07T14:04:57.981Z,101101.44
2022-08-07T14:08:00.489Z,101107.47
2022-08-07T14:12:05.747Z,101102.69
2022-08-07T14:14:54.152Z,101088.55
2022-08-07T14:18:13.030Z,101091.36
2022-08-07T14:24:56.341Z,101092.52
2022-08-07T14:28:12.598Z,101100.30
2022-08-07T14:30:40.559Z,101094.08
2022-08-07T14:33:09.222Z,101098.16
2022-08-07T14:36:42.095Z,101092.75
2022-08-07T14:43:57.075Z,101102.75
2022-08-07T14:54:34.548Z,101091.80
2022-08-07T14:57:58.614Z,101089.42
2022-08-07T15:00:33.002Z,101094.27
2022-08-07T15:11:53.270Z,101094.92
2022-08-07T15:25:12.747Z,101105.71
2022-08-07T15:27:25.840Z,101101.38
2022-08-07T15:30:16.096Z,101094.80
2022-08-07T15:32:51.127Z,101102.83
2022-08-07T15:36:00.493Z,101112.35
2022-08-07T15:42:47.819Z,101111.62
2022-08-07T15:45:56.290Z,101115.70
2022-08-07T15:48:32.334Z,101119.81
2022-08-07T15:51:16.650Z,101131.59
2022-08-07T15:53:53.650Z,101136.39
2022-08-07T16:00:52.920Z,101132.05
2022-08-07T16:04:29.851Z,101141.98
2022-08-07T16:08:33.089Z,101142.81
2022-08-07T16:10:26.803Z,101143.84
2022-08-07T16:17:15.141Z,101147.38
2022-08-07T16:20:33.393Z,101149.63
2022-08-07T16:30:08.533Z,101157.41
2022-08-07T16:32:01.399Z,101161.27
2022-08-07T16:35:56.790Z,101160.98
2022-08-07T16:39:02.178Z,101164.05
2022-08-07T17:02:09.817Z,101206.97
2022-08-07T17:14:18.266Z,101234.79
2022-08-07T17:18:23.312Z,101234.47
2022-08-07T17:20:55.864Z,101259.77
2022-08-07T17:24:14.367Z,101264.84
2022-08-07T17:35:51.679Z,101295.77
2022-08-07T17:38:33.193Z,101303.29
2022-08-07T17:47:08.475Z,101310.09
2022-08-07T17:49:54.339Z,101314.80
2022-08-07T17:52:36.986Z,101327.20
2022-08-07T17:55:55.046Z,101328.77
2022-08-07T17:58:30.765Z,101334.92
2022-08-07T18:02:23.359Z,101337.27
2022-08-07T18:05:00.570Z,101342.52
2022-08-07T18:07:35.204Z,101346.20
2022-08-07T18:10:28.623Z,101352.52
2022-08-07T18:13:15.287Z,101354.02
2022-08-07T18:16:33.457Z,101357.19
2022-08-07T18:21:07.142Z,101355.22
2022-08-07T18:22:27.920Z,101361.61
2022-08-07T18:25:19.421Z,101365.79
2022-08-07T18:28:58.206Z,101367.30
2022-08-07T18:31:50.215Z,101368.94
2022-08-07T18:35:08.583Z,101365.04
2022-08-07T18:38:55.560Z,101372.90
2022-08-07T18:41:44.951Z,101380.42
2022-08-07T18:45:45.075Z,101387.77
2022-08-07T18:48:52.169Z,101395.64
2022-08-07T18:53:06.633Z,101386.91
2022-08-07T18:57:30.353Z,101397.00
2022-08-07T19:16:04.666Z,101396.07
2022-08-07T20:35:23.296Z,101419.99
2022-08-07T20:37:58.670Z,101412.91
2022-08-07T20:40:32.493Z,101413.69
2022-08-07T20:43:14.518Z,101415.61
2022-08-07T20:49:59.586Z,101414.52
2022-08-07T20:51:50.914Z,101418.86
2022-08-07T20:54:29.259Z,101413.25
2022-08-07T20:57:02.771Z,101412.16
2022-08-07T21:00:07.502Z,101420.92
2022-08-07T21:02:54.190Z,101425.11
2022-08-07T21:05:42.968Z,101420.91
2022-08-07T21:08:37.190Z,101427.06
2022-08-07T21:11:14.445Z,101428.52
2022-08-07T21:14:20.058Z,101430.75
2022-08-07T21:20:55.955Z,101428.35
2022-08-07T21:23:58.561Z,101428.54
2022-08-07T21:27:14.541Z,101433.69
2022-08-07T21:30:11.733Z,101436.70
2022-08-07T21:33:19.954Z,101425.48
2022-08-07T21:40:43.891Z,101431.16
2022-08-07T21:52:12.064Z,101426.48
